Řízení letového provozu České republiky
Letiste: LKPR Aktualizace: 20.01.2017 22:08:14  UTC
 METAR LKPR 20.01. 22:00 ...
METAR LKPR 202200Z 00000KT 3500 BR NSC M09/M11 Q1033 NOSIG RMK REG QNH 1028=
 TAF LKPR 20.01. 17:00 ...
TAF LKPR 201700Z 2018/2200 VRB02KT 4000 BR SCT036      TEMPO 2018/2100 7000      TEMPO 2018/2108 BKN036      TEMPO 2100/2108 2500 BR      BECMG 2108/2110 7000 NSC=